sensor_id;sensor_type;location;lat;lon;timestamp;pressure;altitude;pressure_sealevel;temperature;humidity
62072;BME280;48031;48.542;13.232;2022-12-11T00:03:02;96330.34;;;5.79;nan
62072;BME280;48031;48.542;13.232;2022-12-11T00:07:03;96332.06;;;6.24;nan
62072;BME280;48031;48.542;13.232;2022-12-11T00:11:10;96326.50;;;6.36;nan
62072;BME280;48031;48.542;13.232;2022-12-11T00:15:13;96331.09;;;6.13;nan
62072;BME280;48031;48.542;13.232;2022-12-11T00:19:15;96334.13;;;6.17;nan
62072;BME280;48031;48.542;13.232;2022-12-11T00:23:17;96329.19;;;5.75;nan
62072;BME280;48031;48.542;13.232;2022-12-11T00:27:18;96341.56;;;5.38;nan
62072;BME280;48031;48.542;13.232;2022-12-11T00:31:22;96330.97;;;6.25;nan
62072;BME280;48031;48.542;13.232;2022-12-11T00:35:24;96336.25;;;5.43;nan
62072;BME280;48031;48.542;13.232;2022-12-11T00:39:26;96340.31;;;5.96;nan
62072;BME280;48031;48.542;13.232;2022-12-11T00:43:27;96348.13;;;5.97;nan
62072;BME280;48031;48.542;13.232;2022-12-11T00:47:29;96347.16;;;5.70;nan
62072;BME280;48031;48.542;13.232;2022-12-11T00:51:31;96350.38;;;5.17;nan
62072;BME280;48031;48.542;13.232;2022-12-11T00:55:40;96361.06;;;6.17;nan
62072;BME280;48031;48.542;13.232;2022-12-11T00:59:42;96371.56;;;5.63;nan
62072;BME280;48031;48.542;13.232;2022-12-11T01:03:44;96374.06;;;5.70;nan
62072;BME280;48031;48.542;13.232;2022-12-11T01:07:47;96373.03;;;5.88;nan
62072;BME280;48031;48.542;13.232;2022-12-11T01:11:49;96389.91;;;5.50;nan
62072;BME280;48031;48.542;13.232;2022-12-11T01:15:51;96391.06;;;5.37;nan
62072;BME280;48031;48.542;13.232;2022-12-11T01:19:53;96382.09;;;5.48;nan
62072;BME280;48031;48.542;13.232;2022-12-11T01:23:55;96385.91;;;5.69;nan
62072;BME280;48031;48.542;13.232;2022-12-11T01:27:58;96384.38;;;6.28;nan
62072;BME280;48031;48.542;13.232;2022-12-11T01:32:00;96388.69;;;5.74;nan
62072;BME280;48031;48.542;13.232;2022-12-11T01:36:09;96391.28;;;6.41;nan
62072;BME280;48031;48.542;13.232;2022-12-11T01:40:17;96391.38;;;6.73;nan
62072;BME280;48031;48.542;13.232;2022-12-11T01:48:24;96397.31;;;6.31;nan
62072;BME280;48031;48.542;13.232;2022-12-11T01:52:27;96391.94;;;5.59;nan
62072;BME280;48031;48.542;13.232;2022-12-11T01:56:31;96384.16;;;6.13;nan
62072;BME280;48031;48.542;13.232;2022-12-11T02:00:34;96395.38;;;5.55;nan
62072;BME280;48031;48.542;13.232;2022-12-11T02:04:38;96385.75;;;5.75;nan
62072;BME280;48031;48.542;13.232;2022-12-11T02:08:40;96396.78;;;5.57;nan
62072;BME280;48031;48.542;13.232;2022-12-11T02:12:55;96396.09;;;5.83;nan
62072;BME280;48031;48.542;13.232;2022-12-11T02:17:13;96392.94;;;6.47;nan
62072;BME280;48031;48.542;13.232;2022-12-11T02:21:24;96395.56;;;6.20;nan
62072;BME280;48031;48.542;13.232;2022-12-11T02:29:52;96405.38;;;6.09;nan
62072;BME280;48031;48.542;13.232;2022-12-11T02:34:01;96409.88;;;6.04;nan
62072;BME280;48031;48.542;13.232;2022-12-11T02:38:09;96410.72;;;5.88;nan
62072;BME280;48031;48.542;13.232;2022-12-11T02:42:13;96402.06;;;5.69;nan
62072;BME280;48031;48.542;13.232;2022-12-11T02:46:18;96400.44;;;5.84;nan
62072;BME280;48031;48.542;13.232;2022-12-11T02:50:22;96412.19;;;5.78;nan
62072;BME280;48031;48.542;13.232;2022-12-11T02:54:30;96407.97;;;6.21;nan
62072;BME280;48031;48.542;13.232;2022-12-11T02:58:36;96407.78;;;6.06;nan
62072;BME280;48031;48.542;13.232;2022-12-11T03:02:43;96404.28;;;5.55;nan
62072;BME280;48031;48.542;13.232;2022-12-11T03:06:48;96407.53;;;5.57;nan
62072;BME280;48031;48.542;13.232;2022-12-11T03:10:51;96414.31;;;5.60;nan
62072;BME280;48031;48.542;13.232;2022-12-11T03:14:54;96403.53;;;5.26;nan
62072;BME280;48031;48.542;13.232;2022-12-11T03:23:32;96405.09;;;5.89;nan
62072;BME280;48031;48.542;13.232;2022-12-11T03:27:56;96401.66;;;5.60;nan
62072;BME280;48031;48.542;13.232;2022-12-11T03:36:12;96404.19;;;5.50;nan
62072;BME280;48031;48.542;13.232;2022-12-11T03:40:16;96429.19;;;4.89;nan
62072;BME280;48031;48.542;13.232;2022-12-11T03:44:20;96424.50;;;5.13;nan
62072;BME280;48031;48.542;13.232;2022-12-11T03:48:25;96416.44;;;5.13;nan
62072;BME280;48031;48.542;13.232;2022-12-11T03:52:29;96422.31;;;5.10;nan
62072;BME280;48031;48.542;13.232;2022-12-11T03:56:34;96417.56;;;5.28;nan
62072;BME280;48031;48.542;13.232;2022-12-11T04:00:38;96425.28;;;4.96;nan
62072;BME280;48031;48.542;13.232;2022-12-11T04:04:41;96427.06;;;5.19;nan
62072;BME280;48031;48.542;13.232;2022-12-11T04:08:43;96422.91;;;5.12;nan
62072;BME280;48031;48.542;13.232;2022-12-11T04:12:44;96421.63;;;5.48;nan
62072;BME280;48031;48.542;13.232;2022-12-11T04:16:46;96412.25;;;4.88;nan
62072;BME280;48031;48.542;13.232;2022-12-11T04:20:48;96412.75;;;5.47;nan
62072;BME280;48031;48.542;13.232;2022-12-11T04:25:11;96403.78;;;4.96;nan
62072;BME280;48031;48.542;13.232;2022-12-11T04:29:14;96394.47;;;5.16;nan
62072;BME280;48031;48.542;13.232;2022-12-11T04:33:16;96393.81;;;5.42;nan
62072;BME280;48031;48.542;13.232;2022-12-11T04:37:17;96391.59;;;5.06;nan
62072;BME280;48031;48.542;13.232;2022-12-11T04:41:19;96397.75;;;5.34;nan
62072;BME280;48031;48.542;13.232;2022-12-11T04:45:21;96390.50;;;5.18;nan
62072;BME280;48031;48.542;13.232;2022-12-11T04:49:23;96399.84;;;5.32;nan
62072;BME280;48031;48.542;13.232;2022-12-11T04:53:25;96399.09;;;4.75;nan
62072;BME280;48031;48.542;13.232;2022-12-11T04:57:27;96386.00;;;4.50;nan
62072;BME280;48031;48.542;13.232;2022-12-11T05:01:28;96396.84;;;5.12;nan
62072;BME280;48031;48.542;13.232;2022-12-11T05:05:30;96394.34;;;4.94;nan
62072;BME280;48031;48.542;13.232;2022-12-11T05:09:32;96406.88;;;4.88;nan
62072;BME280;48031;48.542;13.232;2022-12-11T05:13:34;96404.09;;;5.12;nan
62072;BME280;48031;48.542;13.232;2022-12-11T05:17:36;96412.06;;;4.78;nan
62072;BME280;48031;48.542;13.232;2022-12-11T05:21:38;96404.28;;;4.93;nan
62072;BME280;48031;48.542;13.232;2022-12-11T05:25:40;96404.13;;;5.00;nan
62072;BME280;48031;48.542;13.232;2022-12-11T05:29:42;96416.13;;;4.41;nan
62072;BME280;48031;48.542;13.232;2022-12-11T05:33:44;96413.81;;;4.44;nan
62072;BME280;48031;48.542;13.232;2022-12-11T05:37:46;96414.78;;;4.27;nan
62072;BME280;48031;48.542;13.232;2022-12-11T05:41:48;96415.56;;;4.39;nan
62072;BME280;48031;48.542;13.232;2022-12-11T05:45:50;96414.94;;;4.60;nan
62072;BME280;48031;48.542;13.232;2022-12-11T05:49:52;96424.09;;;4.36;nan
62072;BME280;48031;48.542;13.232;2022-12-11T05:53:55;96415.97;;;4.59;nan
62072;BME280;48031;48.542;13.232;2022-12-11T05:57:57;96418.56;;;4.54;nan
62072;BME280;48031;48.542;13.232;2022-12-11T06:01:58;96414.66;;;4.33;nan
62072;BME280;48031;48.542;13.232;2022-12-11T06:06:01;96409.41;;;4.27;nan
62072;BME280;48031;48.542;13.232;2022-12-11T06:10:04;96415.81;;;5.06;nan
62072;BME280;48031;48.542;13.232;2022-12-11T06:14:06;96420.97;;;4.15;nan
62072;BME280;48031;48.542;13.232;2022-12-11T06:18:07;96417.06;;;4.35;nan
62072;BME280;48031;48.542;13.232;2022-12-11T06:22:09;96423.28;;;4.35;nan
62072;BME280;48031;48.542;13.232;2022-12-11T06:26:12;96423.44;;;4.29;nan
62072;BME280;48031;48.542;13.232;2022-12-11T06:30:14;96430.81;;;3.98;nan
62072;BME280;48031;48.542;13.232;2022-12-11T06:34:17;96431.19;;;4.53;nan
62072;BME280;48031;48.542;13.232;2022-12-11T06:38:18;96441.63;;;4.38;nan
62072;BME280;48031;48.542;13.232;2022-12-11T06:42:20;96449.28;;;4.58;nan
62072;BME280;48031;48.542;13.232;2022-12-11T06:46:22;96460.09;;;4.11;nan
62072;BME280;48031;48.542;13.232;2022-12-11T06:50:24;96451.78;;;4.01;nan
62072;BME280;48031;48.542;13.232;2022-12-11T06:54:26;96457.06;;;3.96;nan
62072;BME280;48031;48.542;13.232;2022-12-11T06:58:28;96453.19;;;3.57;nan
62072;BME280;48031;48.542;13.232;2022-12-11T07:02:30;96442.34;;;4.10;nan
62072;BME280;48031;48.542;13.232;2022-12-11T07:06:32;96448.53;;;3.64;nan
62072;BME280;48031;48.542;13.232;2022-12-11T07:10:34;96457.53;;;3.93;nan
62072;BME280;48031;48.542;13.232;2022-12-11T07:14:36;96459.38;;;3.81;nan
62072;BME280;48031;48.542;13.232;2022-12-11T07:18:56;96470.59;;;4.01;nan
62072;BME280;48031;48.542;13.232;2022-12-11T07:22:58;96478.03;;;3.64;nan
62072;BME280;48031;48.542;13.232;2022-12-11T07:26:59;96476.06;;;3.71;nan
62072;BME280;48031;48.542;13.232;2022-12-11T07:31:16;96469.97;;;4.46;nan
62072;BME280;48031;48.542;13.232;2022-12-11T07:35:19;96476.53;;;4.50;nan
62072;BME280;48031;48.542;13.232;2022-12-11T07:39:21;96473.66;;;4.68;nan
62072;BME280;48031;48.542;13.232;2022-12-11T07:43:23;96472.53;;;4.92;nan
62072;BME280;48031;48.542;13.232;2022-12-11T07:47:24;96473.78;;;4.73;nan
62072;BME280;48031;48.542;13.232;2022-12-11T07:51:29;96470.41;;;4.66;nan
62072;BME280;48031;48.542;13.232;2022-12-11T07:55:31;96472.22;;;4.37;nan
62072;BME280;48031;48.542;13.232;2022-12-11T07:59:33;96475.72;;;4.38;nan
62072;BME280;48031;48.542;13.232;2022-12-11T08:03:34;96481.91;;;4.27;nan
62072;BME280;48031;48.542;13.232;2022-12-11T08:07:36;96475.81;;;4.54;nan
62072;BME280;48031;48.542;13.232;2022-12-11T08:11:38;96477.97;;;4.69;nan
62072;BME280;48031;48.542;13.232;2022-12-11T08:15:40;96478.66;;;5.16;nan
62072;BME280;48031;48.542;13.232;2022-12-11T08:19:42;96476.19;;;5.15;nan
62072;BME280;48031;48.542;13.232;2022-12-11T08:23:44;96485.72;;;4.66;nan
62072;BME280;48031;48.542;13.232;2022-12-11T08:27:46;96480.38;;;4.54;nan
62072;BME280;48031;48.542;13.232;2022-12-11T08:31:47;96480.88;;;4.28;nan
62072;BME280;48031;48.542;13.232;2022-12-11T08:35:49;96480.56;;;4.64;nan
62072;BME280;48031;48.542;13.232;2022-12-11T08:39:51;96489.47;;;5.05;nan
62072;BME280;48031;48.542;13.232;2022-12-11T08:43:54;96492.91;;;4.88;nan
62072;BME280;48031;48.542;13.232;2022-12-11T08:47:57;96496.72;;;5.32;nan
62072;BME280;48031;48.542;13.232;2022-12-11T08:51:59;96503.09;;;5.15;nan
62072;BME280;48031;48.542;13.232;2022-12-11T08:56:12;96498.53;;;5.89;nan
62072;BME280;48031;48.542;13.232;2022-12-11T09:00:15;96496.66;;;4.76;nan
62072;BME280;48031;48.542;13.232;2022-12-11T09:04:17;96498.44;;;4.70;nan
62072;BME280;48031;48.542;13.232;2022-12-11T09:08:19;96498.75;;;4.85;nan
62072;BME280;48031;48.542;13.232;2022-12-11T09:12:21;96497.50;;;4.76;nan
62072;BME280;48031;48.542;13.232;2022-12-11T09:16:25;96504.97;;;4.74;nan
62072;BME280;48031;48.542;13.232;2022-12-11T09:20:28;96504.94;;;4.23;nan
62072;BME280;48031;48.542;13.232;2022-12-11T09:24:30;96498.00;;;4.62;nan
62072;BME280;48031;48.542;13.232;2022-12-11T09:28:32;96511.47;;;4.27;nan
62072;BME280;48031;48.542;13.232;2022-12-11T09:32:33;96501.41;;;4.45;nan
62072;BME280;48031;48.542;13.232;2022-12-11T09:36:37;96490.50;;;5.32;nan
62072;BME280;48031;48.542;13.232;2022-12-11T09:40:40;96491.38;;;4.92;nan
62072;BME280;48031;48.542;13.232;2022-12-11T09:45:13;96486.69;;;6.06;nan
62072;BME280;48031;48.542;13.232;2022-12-11T09:49:39;96487.88;;;5.65;nan
62072;BME280;48031;48.542;13.232;2022-12-11T09:53:41;96485.72;;;5.06;nan
62072;BME280;48031;48.542;13.232;2022-12-11T10:02:02;96487.25;;;5.92;nan
62072;BME280;48031;48.542;13.232;2022-12-11T10:06:37;96475.63;;;7.28;nan
62072;BME280;48031;48.542;13.232;2022-12-11T10:15:11;96479.09;;;6.80;nan
62072;BME280;48031;48.542;13.232;2022-12-11T10:19:26;96469.25;;;7.13;nan
62072;BME280;48031;48.542;13.232;2022-12-11T10:23:37;96467.25;;;6.21;nan
62072;BME280;48031;48.542;13.232;2022-12-11T10:27:42;96470.78;;;5.88;nan
62072;BME280;48031;48.542;13.232;2022-12-11T10:31:49;96461.25;;;6.96;nan
62072;BME280;48031;48.542;13.232;2022-12-11T10:35:55;96456.97;;;6.56;nan
62072;BME280;48031;48.542;13.232;2022-12-11T10:39:58;96458.84;;;6.17;nan
62072;BME280;48031;48.542;13.232;2022-12-11T10:43:59;96446.88;;;6.90;nan
62072;BME280;48031;48.542;13.232;2022-12-11T10:48:04;96437.81;;;7.87;nan
62072;BME280;48031;48.542;13.232;2022-12-11T10:52:18;96433.91;;;9.14;nan
62072;BME280;48031;48.542;13.232;2022-12-11T10:56:25;96430.22;;;8.63;nan
62072;BME280;48031;48.542;13.232;2022-12-11T11:00:39;96424.47;;;8.49;nan
62072;BME280;48031;48.542;13.232;2022-12-11T11:04:41;96424.25;;;7.18;nan
62072;BME280;48031;48.542;13.232;2022-12-11T11:08:50;96423.88;;;6.61;nan
62072;BME280;48031;48.542;13.232;2022-12-11T11:13:00;96425.72;;;5.50;nan
62072;BME280;48031;48.542;13.232;2022-12-11T11:17:02;96424.81;;;5.78;nan
62072;BME280;48031;48.542;13.232;2022-12-11T11:21:05;96414.50;;;6.47;nan
62072;BME280;48031;48.542;13.232;2022-12-11T11:25:16;96415.78;;;6.39;nan
62072;BME280;48031;48.542;13.232;2022-12-11T11:29:30;96397.69;;;6.83;nan
62072;BME280;48031;48.542;13.232;2022-12-11T11:33:34;96392.06;;;6.85;nan
62072;BME280;48031;48.542;13.232;2022-12-11T11:37:38;96392.56;;;7.35;nan
62072;BME280;48031;48.542;13.232;2022-12-11T11:46:46;96379.28;;;8.03;nan
62072;BME280;48031;48.542;13.232;2022-12-11T11:50:32;96374.88;;;8.96;nan
62072;BME280;48031;48.542;13.232;2022-12-11T11:54:50;96364.88;;;8.96;nan
62072;BME280;48031;48.542;13.232;2022-12-11T12:02:59;96341.84;;;14.72;nan
62072;BME280;48031;48.542;13.232;2022-12-11T12:07:41;96355.09;;;10.27;nan
62072;BME280;48031;48.542;13.232;2022-12-11T12:15:57;96348.44;;;10.73;nan
62072;BME280;48031;48.542;13.232;2022-12-11T12:20:09;96342.94;;;9.03;nan
62072;BME280;48031;48.542;13.232;2022-12-11T12:42:08;96345.41;;;9.19;nan
62072;BME280;48031;48.542;13.232;2022-12-11T12:46:39;96340.41;;;8.56;nan
62072;BME280;48031;48.542;13.232;2022-12-11T12:50:46;96345.09;;;7.81;nan
62072;BME280;48031;48.542;13.232;2022-12-11T12:54:51;96347.03;;;6.85;nan
62072;BME280;48031;48.542;13.232;2022-12-11T12:59:24;96358.81;;;7.06;nan
62072;BME280;48031;48.542;13.232;2022-12-11T13:03:31;96330.97;;;12.25;nan
62072;BME280;48031;48.542;13.232;2022-12-11T13:07:36;96330.41;;;14.97;nan
62072;BME280;48031;48.542;13.232;2022-12-11T13:11:38;96333.38;;;12.93;nan
62072;BME280;48031;48.542;13.232;2022-12-11T13:15:41;96332.31;;;11.36;nan
62072;BME280;48031;48.542;13.232;2022-12-11T13:19:46;96334.53;;;10.00;nan
62072;BME280;48031;48.542;13.232;2022-12-11T13:23:48;96347.44;;;8.10;nan
62072;BME280;48031;48.542;13.232;2022-12-11T13:27:50;96362.03;;;7.03;nan
62072;BME280;48031;48.542;13.232;2022-12-11T13:32:18;96357.03;;;6.19;nan
62072;BME280;48031;48.542;13.232;2022-12-11T13:36:25;96363.16;;;5.26;nan
62072;BME280;48031;48.542;13.232;2022-12-11T13:40:35;96365.03;;;5.76;nan
62072;BME280;48031;48.542;13.232;2022-12-11T13:44:39;96363.75;;;5.45;nan
62072;BME280;48031;48.542;13.232;2022-12-11T13:48:53;96365.19;;;5.69;nan
62072;BME280;48031;48.542;13.232;2022-12-11T13:53:00;96360.88;;;5.68;nan
62072;BME280;48031;48.542;13.232;2022-12-11T14:01:20;96359.41;;;6.16;nan
62072;BME280;48031;48.542;13.232;2022-12-11T14:05:24;96377.03;;;4.73;nan
62072;BME280;48031;48.542;13.232;2022-12-11T14:09:26;96373.16;;;4.97;nan
62072;BME280;48031;48.542;13.232;2022-12-11T14:13:37;96358.47;;;6.27;nan
62072;BME280;48031;48.542;13.232;2022-12-11T14:17:41;96360.72;;;5.58;nan
62072;BME280;48031;48.542;13.232;2022-12-11T14:22:00;96367.47;;;5.11;nan
62072;BME280;48031;48.542;13.232;2022-12-11T14:26:27;96360.22;;;5.61;nan
62072;BME280;48031;48.542;13.232;2022-12-11T14:30:32;96359.63;;;4.92;nan
62072;BME280;48031;48.542;13.232;2022-12-11T14:34:43;96355.59;;;5.40;nan
62072;BME280;48031;48.542;13.232;2022-12-11T14:38:57;96365.66;;;4.83;nan
62072;BME280;48031;48.542;13.232;2022-12-11T14:43:08;96372.47;;;4.45;nan
62072;BME280;48031;48.542;13.232;2022-12-11T14:47:15;96371.84;;;4.15;nan
62072;BME280;48031;48.542;13.232;2022-12-11T14:51:19;96377.63;;;3.72;nan
62072;BME280;48031;48.542;13.232;2022-12-11T14:55:28;96379.22;;;3.96;nan
62072;BME280;48031;48.542;13.232;2022-12-11T14:59:38;96381.41;;;4.23;nan
62072;BME280;48031;48.542;13.232;2022-12-11T15:03:41;96382.25;;;3.42;nan
62072;BME280;48031;48.542;13.232;2022-12-11T15:12:18;96382.72;;;3.97;nan
62072;BME280;48031;48.542;13.232;2022-12-11T15:16:21;96375.97;;;3.83;nan
62072;BME280;48031;48.542;13.232;2022-12-11T15:20:28;96385.16;;;4.10;nan
62072;BME280;48031;48.542;13.232;2022-12-11T15:24:36;96380.84;;;3.97;nan
62072;BME280;48031;48.542;13.232;2022-12-11T15:28:39;96381.41;;;3.29;nan
62072;BME280;48031;48.542;13.232;2022-12-11T15:32:41;96389.75;;;3.40;nan
62072;BME280;48031;48.542;13.232;2022-12-11T15:36:43;96389.25;;;3.43;nan
62072;BME280;48031;48.542;13.232;2022-12-11T15:40:45;96382.63;;;3.68;nan
62072;BME280;48031;48.542;13.232;2022-12-11T15:44:46;96386.09;;;3.46;nan
62072;BME280;48031;48.542;13.232;2022-12-11T15:48:49;96388.06;;;3.15;nan
62072;BME280;48031;48.542;13.232;2022-12-11T15:52:52;96377.13;;;3.75;nan
62072;BME280;48031;48.542;13.232;2022-12-11T15:56:54;96373.28;;;3.48;nan
62072;BME280;48031;48.542;13.232;2022-12-11T16:00:56;96383.56;;;3.51;nan
62072;BME280;48031;48.542;13.232;2022-12-11T16:04:58;96387.06;;;3.40;nan
62072;BME280;48031;48.542;13.232;2022-12-11T16:09:00;96389.16;;;2.96;nan
62072;BME280;48031;48.542;13.232;2022-12-11T16:13:04;96392.66;;;3.38;nan
62072;BME280;48031;48.542;13.232;2022-12-11T16:17:07;96397.41;;;3.36;nan
62072;BME280;48031;48.542;13.232;2022-12-11T16:21:09;96396.38;;;2.96;nan
62072;BME280;48031;48.542;13.232;2022-12-11T16:25:11;96397.50;;;3.29;nan
62072;BME280;48031;48.542;13.232;2022-12-11T16:29:13;96401.72;;;3.25;nan
62072;BME280;48031;48.542;13.232;2022-12-11T16:33:15;96393.34;;;3.68;nan
62072;BME280;48031;48.542;13.232;2022-12-11T16:37:17;96394.16;;;3.81;nan
62072;BME280;48031;48.542;13.232;2022-12-11T16:41:18;96393.81;;;3.42;nan
62072;BME280;48031;48.542;13.232;2022-12-11T16:45:22;96391.03;;;3.95;nan
62072;BME280;48031;48.542;13.232;2022-12-11T16:49:25;96399.91;;;3.84;nan
62072;BME280;48031;48.542;13.232;2022-12-11T16:53:27;96405.03;;;3.51;nan
62072;BME280;48031;48.542;13.232;2022-12-11T16:57:29;96398.47;;;3.58;nan
62072;BME280;48031;48.542;13.232;2022-12-11T17:01:31;96399.75;;;3.32;nan
62072;BME280;48031;48.542;13.232;2022-12-11T17:05:33;96398.69;;;3.22;nan
62072;BME280;48031;48.542;13.232;2022-12-11T17:09:35;96402.47;;;3.03;nan
62072;BME280;48031;48.542;13.232;2022-12-11T17:13:37;96392.44;;;2.68;nan
62072;BME280;48031;48.542;13.232;2022-12-11T17:17:39;96401.88;;;2.89;nan
62072;BME280;48031;48.542;13.232;2022-12-11T17:21:44;96407.31;;;2.82;nan
62072;BME280;48031;48.542;13.232;2022-12-11T17:25:52;96401.44;;;2.74;nan
62072;BME280;48031;48.542;13.232;2022-12-11T17:29:54;96400.34;;;2.33;nan
62072;BME280;48031;48.542;13.232;2022-12-11T17:33:57;96405.44;;;2.53;nan
62072;BME280;48031;48.542;13.232;2022-12-11T17:38:01;96408.06;;;2.23;nan
62072;BME280;48031;48.542;13.232;2022-12-11T17:42:03;96425.75;;;2.42;nan
62072;BME280;48031;48.542;13.232;2022-12-11T17:46:05;96413.81;;;2.08;nan
62072;BME280;48031;48.542;13.232;2022-12-11T17:50:08;96422.72;;;2.39;nan
62072;BME280;48031;48.542;13.232;2022-12-11T17:54:10;96419.00;;;2.03;nan
62072;BME280;48031;48.542;13.232;2022-12-11T17:58:16;96420.91;;;2.51;nan
62072;BME280;48031;48.542;13.232;2022-12-11T18:02:18;96432.13;;;2.78;nan
62072;BME280;48031;48.542;13.232;2022-12-11T18:06:20;96439.44;;;2.53;nan
62072;BME280;48031;48.542;13.232;2022-12-11T18:10:23;96435.53;;;2.00;nan
62072;BME280;48031;48.542;13.232;2022-12-11T18:14:25;96440.06;;;2.00;nan
62072;BME280;48031;48.542;13.232;2022-12-11T18:18:27;96434.69;;;2.18;nan
62072;BME280;48031;48.542;13.232;2022-12-11T18:22:29;96437.41;;;2.66;nan
62072;BME280;48031;48.542;13.232;2022-12-11T18:26:31;96429.97;;;2.98;nan
62072;BME280;48031;48.542;13.232;2022-12-11T18:30:32;96427.78;;;3.18;nan
62072;BME280;48031;48.542;13.232;2022-12-11T18:34:34;96429.38;;;3.38;nan
62072;BME280;48031;48.542;13.232;2022-12-11T18:38:36;96438.19;;;2.85;nan
62072;BME280;48031;48.542;13.232;2022-12-11T18:42:38;96440.69;;;3.40;nan
62072;BME280;48031;48.542;13.232;2022-12-11T18:46:40;96439.25;;;2.96;nan
62072;BME280;48031;48.542;13.232;2022-12-11T18:50:46;96441.09;;;3.25;nan
62072;BME280;48031;48.542;13.232;2022-12-11T18:54:48;96450.63;;;2.79;nan
62072;BME280;48031;48.542;13.232;2022-12-11T18:58:52;96445.69;;;2.46;nan
62072;BME280;48031;48.542;13.232;2022-12-11T19:02:54;96448.69;;;2.20;nan
62072;BME280;48031;48.542;13.232;2022-12-11T19:06:59;96453.75;;;2.28;nan
62072;BME280;48031;48.542;13.232;2022-12-11T19:11:01;96458.47;;;2.08;nan
62072;BME280;48031;48.542;13.232;2022-12-11T19:15:04;96453.97;;;2.45;nan
62072;BME280;48031;48.542;13.232;2022-12-11T19:19:08;96459.91;;;2.95;nan
62072;BME280;48031;48.542;13.232;2022-12-11T19:23:11;96451.66;;;2.30;nan
62072;BME280;48031;48.542;13.232;2022-12-11T19:27:13;96448.00;;;2.06;nan
62072;BME280;48031;48.542;13.232;2022-12-11T19:31:17;96455.44;;;2.41;nan
62072;BME280;48031;48.542;13.232;2022-12-11T19:35:19;96450.81;;;2.30;nan
62072;BME280;48031;48.542;13.232;2022-12-11T19:39:21;96464.88;;;1.89;nan
62072;BME280;48031;48.542;13.232;2022-12-11T19:43:23;96461.00;;;2.03;nan
62072;BME280;48031;48.542;13.232;2022-12-11T19:47:24;96459.00;;;1.98;nan
62072;BME280;48031;48.542;13.232;2022-12-11T19:51:32;96446.91;;;2.50;nan
62072;BME280;48031;48.542;13.232;2022-12-11T19:55:34;96441.91;;;1.99;nan
62072;BME280;48031;48.542;13.232;2022-12-11T19:59:36;96437.97;;;2.20;nan
62072;BME280;48031;48.542;13.232;2022-12-11T20:03:38;96437.06;;;2.08;nan
62072;BME280;48031;48.542;13.232;2022-12-11T20:07:39;96449.06;;;2.05;nan
62072;BME280;48031;48.542;13.232;2022-12-11T20:11:42;96443.63;;;2.48;nan
62072;BME280;48031;48.542;13.232;2022-12-11T20:15:45;96441.47;;;2.39;nan
62072;BME280;48031;48.542;13.232;2022-12-11T20:19:46;96442.66;;;1.63;nan
62072;BME280;48031;48.542;13.232;2022-12-11T20:23:48;96445.78;;;1.60;nan
62072;BME280;48031;48.542;13.232;2022-12-11T20:27:51;96439.97;;;1.63;nan
62072;BME280;48031;48.542;13.232;2022-12-11T20:31:52;96431.69;;;1.72;nan
62072;BME280;48031;48.542;13.232;2022-12-11T20:35:54;96434.09;;;1.55;nan
62072;BME280;48031;48.542;13.232;2022-12-11T20:39:56;96430.59;;;1.30;nan
62072;BME280;48031;48.542;13.232;2022-12-11T20:43:58;96439.44;;;1.30;nan
62072;BME280;48031;48.542;13.232;2022-12-11T20:48:00;96431.13;;;0.89;nan
62072;BME280;48031;48.542;13.232;2022-12-11T20:52:02;96425.25;;;1.30;nan
62072;BME280;48031;48.542;13.232;2022-12-11T20:56:15;96435.47;;;1.39;nan
62072;BME280;48031;48.542;13.232;2022-12-11T21:00:17;96446.88;;;0.97;nan
62072;BME280;48031;48.542;13.232;2022-12-11T21:04:19;96436.06;;;0.85;nan
62072;BME280;48031;48.542;13.232;2022-12-11T21:08:21;96436.28;;;1.15;nan
62072;BME280;48031;48.542;13.232;2022-12-11T21:12:23;96444.25;;;1.46;nan
62072;BME280;48031;48.542;13.232;2022-12-11T21:16:34;96443.97;;;1.97;nan
62072;BME280;48031;48.542;13.232;2022-12-11T21:20:37;96432.66;;;0.71;nan
62072;BME280;48031;48.542;13.232;2022-12-11T21:24:39;96438.31;;;0.88;nan
62072;BME280;48031;48.542;13.232;2022-12-11T21:28:42;96427.34;;;0.96;nan
62072;BME280;48031;48.542;13.232;2022-12-11T21:32:44;96421.44;;;1.19;nan
62072;BME280;48031;48.542;13.232;2022-12-11T21:36:46;96427.75;;;0.62;nan
62072;BME280;48031;48.542;13.232;2022-12-11T21:40:48;96429.25;;;0.51;nan
62072;BME280;48031;48.542;13.232;2022-12-11T21:44:51;96429.03;;;0.91;nan
62072;BME280;48031;48.542;13.232;2022-12-11T21:49:12;96440.16;;;1.19;nan
62072;BME280;48031;48.542;13.232;2022-12-11T21:53:14;96436.16;;;0.72;nan
62072;BME280;48031;48.542;13.232;2022-12-11T21:57:16;96448.06;;;0.69;nan
62072;BME280;48031;48.542;13.232;2022-12-11T22:01:27;96444.72;;;0.80;nan
62072;BME280;48031;48.542;13.232;2022-12-11T22:05:31;96447.56;;;0.48;nan
62072;BME280;48031;48.542;13.232;2022-12-11T22:09:33;96443.03;;;0.86;nan
62072;BME280;48031;48.542;13.232;2022-12-11T22:13:35;96443.03;;;0.48;nan
62072;BME280;48031;48.542;13.232;2022-12-11T22:17:37;96451.88;;;0.87;nan
62072;BME280;48031;48.542;13.232;2022-12-11T22:21:39;96445.84;;;0.66;nan
62072;BME280;48031;48.542;13.232;2022-12-11T22:25:41;96449.31;;;0.67;nan
62072;BME280;48031;48.542;13.232;2022-12-11T22:29:43;96441.94;;;0.62;nan
62072;BME280;48031;48.542;13.232;2022-12-11T22:33:46;96437.44;;;0.56;nan
62072;BME280;48031;48.542;13.232;2022-12-11T22:37:48;96443.09;;;0.35;nan
62072;BME280;48031;48.542;13.232;2022-12-11T22:41:49;96443.69;;;0.37;nan
62072;BME280;48031;48.542;13.232;2022-12-11T22:45:51;96444.19;;;0.21;nan
62072;BME280;48031;48.542;13.232;2022-12-11T22:49:53;96443.16;;;0.15;nan
62072;BME280;48031;48.542;13.232;2022-12-11T22:53:56;96445.63;;;0.17;nan
62072;BME280;48031;48.542;13.232;2022-12-11T22:57:58;96452.81;;;0.16;nan
62072;BME280;48031;48.542;13.232;2022-12-11T23:02:00;96447.38;;;0.43;nan
62072;BME280;48031;48.542;13.232;2022-12-11T23:06:06;96431.84;;;0.71;nan
62072;BME280;48031;48.542;13.232;2022-12-11T23:10:09;96439.22;;;0.24;nan
62072;BME280;48031;48.542;13.232;2022-12-11T23:14:15;96437.13;;;1.09;nan
62072;BME280;48031;48.542;13.232;2022-12-11T23:18:17;96429.13;;;0.77;nan